sensor_id;sensor_type;location;lat;lon;timestamp;temperature;humidity
2621;DHT22;1320;48.128;11.592;2022-08-03T00:01:37;22.20;96.40
2621;DHT22;1320;48.128;11.592;2022-08-03T00:04:04;22.20;96.60
2621;DHT22;1320;48.128;11.592;2022-08-03T00:06:30;22.20;96.60
2621;DHT22;1320;48.128;11.592;2022-08-03T00:08:55;22.20;96.60
2621;DHT22;1320;48.128;11.592;2022-08-03T00:11:21;22.10;96.50
2621;DHT22;1320;48.128;11.592;2022-08-03T00:13:47;22.10;96.50
2621;DHT22;1320;48.128;11.592;2022-08-03T00:16:13;22.00;96.40
2621;DHT22;1320;48.128;11.592;2022-08-03T00:18:39;21.90;96.60
2621;DHT22;1320;48.128;11.592;2022-08-03T00:21:05;21.90;96.70
2621;DHT22;1320;48.128;11.592;2022-08-03T00:23:31;21.80;96.80
2621;DHT22;1320;48.128;11.592;2022-08-03T00:25:57;21.80;96.80
2621;DHT22;1320;48.128;11.592;2022-08-03T00:28:23;21.80;96.90
2621;DHT22;1320;48.128;11.592;2022-08-03T00:30:49;21.70;96.90
2621;DHT22;1320;48.128;11.592;2022-08-03T00:33:15;21.70;97.00
2621;DHT22;1320;48.128;11.592;2022-08-03T00:35:40;21.60;97.10
2621;DHT22;1320;48.128;11.592;2022-08-03T00:38:06;21.50;97.20
2621;DHT22;1320;48.128;11.592;2022-08-03T00:40:32;21.50;97.40
2621;DHT22;1320;48.128;11.592;2022-08-03T00:43:00;21.40;97.50
2621;DHT22;1320;48.128;11.592;2022-08-03T00:45:34;21.40;97.60
2621;DHT22;1320;48.128;11.592;2022-08-03T00:48:01;21.30;97.80
2621;DHT22;1320;48.128;11.592;2022-08-03T00:50:29;21.30;97.90
2621;DHT22;1320;48.128;11.592;2022-08-03T00:52:57;21.30;98.10
2621;DHT22;1320;48.128;11.592;2022-08-03T00:55:24;21.20;98.20
2621;DHT22;1320;48.128;11.592;2022-08-03T00:57:50;21.20;98.40
2621;DHT22;1320;48.128;11.592;2022-08-03T01:00:19;21.20;98.40
2621;DHT22;1320;48.128;11.592;2022-08-03T01:02:45;21.20;98.60
2621;DHT22;1320;48.128;11.592;2022-08-03T01:05:11;21.20;98.80
2621;DHT22;1320;48.128;11.592;2022-08-03T01:08:00;21.20;98.80
2621;DHT22;1320;48.128;11.592;2022-08-03T01:13:03;21.20;99.00
2621;DHT22;1320;48.128;11.592;2022-08-03T01:20:57;21.20;99.10
2621;DHT22;1320;48.128;11.592;2022-08-03T01:23:48;21.20;99.10
2621;DHT22;1320;48.128;11.592;2022-08-03T01:35:42;20.90;99.50
2621;DHT22;1320;48.128;11.592;2022-08-03T01:41:09;20.80;99.80
2621;DHT22;1320;48.128;11.592;2022-08-03T01:43:37;20.70;99.70
2621;DHT22;1320;48.128;11.592;2022-08-03T01:46:06;20.60;99.90
2621;DHT22;1320;48.128;11.592;2022-08-03T01:48:33;20.60;99.90
2621;DHT22;1320;48.128;11.592;2022-08-03T01:51:01;20.50;99.90
2621;DHT22;1320;48.128;11.592;2022-08-03T01:53:27;20.50;99.90
2621;DHT22;1320;48.128;11.592;2022-08-03T01:55:55;20.40;99.90
2621;DHT22;1320;48.128;11.592;2022-08-03T01:58:23;20.30;99.90
2621;DHT22;1320;48.128;11.592;2022-08-03T02:00:50;20.30;99.90
2621;DHT22;1320;48.128;11.592;2022-08-03T02:03:17;20.30;99.90
2621;DHT22;1320;48.128;11.592;2022-08-03T02:05:45;20.30;99.90
2621;DHT22;1320;48.128;11.592;2022-08-03T02:08:12;20.20;99.90
2621;DHT22;1320;48.128;11.592;2022-08-03T02:10:41;20.30;99.90
2621;DHT22;1320;48.128;11.592;2022-08-03T02:13:08;20.30;99.90
2621;DHT22;1320;48.128;11.592;2022-08-03T02:15:38;20.20;99.90
2621;DHT22;1320;48.128;11.592;2022-08-03T02:18:07;20.20;99.90
2621;DHT22;1320;48.128;11.592;2022-08-03T02:20:34;20.20;99.90
2621;DHT22;1320;48.128;11.592;2022-08-03T02:23:02;20.20;99.90
2621;DHT22;1320;48.128;11.592;2022-08-03T02:25:29;20.20;99.90
2621;DHT22;1320;48.128;11.592;2022-08-03T02:28:08;20.20;99.90
2621;DHT22;1320;48.128;11.592;2022-08-03T02:30:37;20.20;99.90
2621;DHT22;1320;48.128;11.592;2022-08-03T02:33:04;20.20;99.90
2621;DHT22;1320;48.128;11.592;2022-08-03T02:35:32;20.20;99.90
2621;DHT22;1320;48.128;11.592;2022-08-03T02:38:02;20.10;99.90
2621;DHT22;1320;48.128;11.592;2022-08-03T02:40:30;20.10;99.90
2621;DHT22;1320;48.128;11.592;2022-08-03T02:43:02;20.00;99.90
2621;DHT22;1320;48.128;11.592;2022-08-03T02:45:31;20.00;99.90
2621;DHT22;1320;48.128;11.592;2022-08-03T02:48:02;20.00;99.90
2621;DHT22;1320;48.128;11.592;2022-08-03T02:50:29;20.00;99.90
2621;DHT22;1320;48.128;11.592;2022-08-03T02:52:56;19.90;99.90
2621;DHT22;1320;48.128;11.592;2022-08-03T02:55:24;19.90;99.90
2621;DHT22;1320;48.128;11.592;2022-08-03T02:57:51;19.80;99.90
2621;DHT22;1320;48.128;11.592;2022-08-03T03:00:18;19.80;99.90
2621;DHT22;1320;48.128;11.592;2022-08-03T03:02:44;19.80;99.90
2621;DHT22;1320;48.128;11.592;2022-08-03T03:05:11;19.70;99.90
2621;DHT22;1320;48.128;11.592;2022-08-03T03:07:38;19.80;99.90
2621;DHT22;1320;48.128;11.592;2022-08-03T03:10:05;19.80;99.90
2621;DHT22;1320;48.128;11.592;2022-08-03T03:12:32;19.80;99.90
2621;DHT22;1320;48.128;11.592;2022-08-03T03:14:59;19.80;99.90
2621;DHT22;1320;48.128;11.592;2022-08-03T03:17:26;19.80;99.90
2621;DHT22;1320;48.128;11.592;2022-08-03T03:19:53;19.90;99.90
2621;DHT22;1320;48.128;11.592;2022-08-03T03:22:21;19.90;99.90
2621;DHT22;1320;48.128;11.592;2022-08-03T03:24:48;19.90;99.90
2621;DHT22;1320;48.128;11.592;2022-08-03T03:27:16;19.80;99.90
2621;DHT22;1320;48.128;11.592;2022-08-03T03:29:42;19.80;99.90
2621;DHT22;1320;48.128;11.592;2022-08-03T03:32:09;19.80;99.90
2621;DHT22;1320;48.128;11.592;2022-08-03T03:34:35;19.80;99.90
2621;DHT22;1320;48.128;11.592;2022-08-03T03:37:01;19.80;99.90
2621;DHT22;1320;48.128;11.592;2022-08-03T03:39:27;19.70;99.90
2621;DHT22;1320;48.128;11.592;2022-08-03T03:41:53;19.70;99.90
2621;DHT22;1320;48.128;11.592;2022-08-03T03:44:19;19.70;99.90
2621;DHT22;1320;48.128;11.592;2022-08-03T03:46:45;19.70;99.90
2621;DHT22;1320;48.128;11.592;2022-08-03T03:49:10;19.70;99.90
2621;DHT22;1320;48.128;11.592;2022-08-03T03:51:36;19.70;99.90
2621;DHT22;1320;48.128;11.592;2022-08-03T03:54:03;19.70;99.90
2621;DHT22;1320;48.128;11.592;2022-08-03T03:56:31;19.70;99.90
2621;DHT22;1320;48.128;11.592;2022-08-03T03:58:56;19.70;99.90
2621;DHT22;1320;48.128;11.592;2022-08-03T04:01:22;19.70;99.90
2621;DHT22;1320;48.128;11.592;2022-08-03T04:03:48;19.70;99.90
2621;DHT22;1320;48.128;11.592;2022-08-03T04:06:14;19.70;99.90
2621;DHT22;1320;48.128;11.592;2022-08-03T04:08:59;19.70;99.90
2621;DHT22;1320;48.128;11.592;2022-08-03T04:11:51;19.70;99.90
2621;DHT22;1320;48.128;11.592;2022-08-03T04:14:23;19.70;99.90
2621;DHT22;1320;48.128;11.592;2022-08-03T04:17:00;19.70;99.90
2621;DHT22;1320;48.128;11.592;2022-08-03T04:19:29;19.70;99.90
2621;DHT22;1320;48.128;11.592;2022-08-03T04:22:00;19.70;99.90
2621;DHT22;1320;48.128;11.592;2022-08-03T04:24:31;19.70;99.90
2621;DHT22;1320;48.128;11.592;2022-08-03T04:27:01;19.70;99.90
2621;DHT22;1320;48.128;11.592;2022-08-03T04:29:28;19.70;99.90
2621;DHT22;1320;48.128;11.592;2022-08-03T04:31:58;19.70;99.90
2621;DHT22;1320;48.128;11.592;2022-08-03T04:34:24;19.70;99.90
2621;DHT22;1320;48.128;11.592;2022-08-03T04:36:53;19.70;99.90
2621;DHT22;1320;48.128;11.592;2022-08-03T04:39:26;19.70;99.90
2621;DHT22;1320;48.128;11.592;2022-08-03T04:42:00;19.60;99.90
2621;DHT22;1320;48.128;11.592;2022-08-03T04:44:27;19.60;99.90
2621;DHT22;1320;48.128;11.592;2022-08-03T04:46:55;19.60;99.90
2621;DHT22;1320;48.128;11.592;2022-08-03T04:49:23;19.60;99.90
2621;DHT22;1320;48.128;11.592;2022-08-03T04:51:50;19.50;99.90
2621;DHT22;1320;48.128;11.592;2022-08-03T04:54:16;19.60;99.90
2621;DHT22;1320;48.128;11.592;2022-08-03T04:56:42;19.50;99.90
2621;DHT22;1320;48.128;11.592;2022-08-03T04:59:09;19.60;99.90
2621;DHT22;1320;48.128;11.592;2022-08-03T05:01:35;19.50;99.90
2621;DHT22;1320;48.128;11.592;2022-08-03T05:04:01;19.60;99.90
2621;DHT22;1320;48.128;11.592;2022-08-03T05:06:26;19.60;99.90
2621;DHT22;1320;48.128;11.592;2022-08-03T05:08:53;19.70;99.90
2621;DHT22;1320;48.128;11.592;2022-08-03T05:11:19;19.80;99.90
2621;DHT22;1320;48.128;11.592;2022-08-03T05:13:45;19.80;99.90
2621;DHT22;1320;48.128;11.592;2022-08-03T05:16:11;19.90;99.90
2621;DHT22;1320;48.128;11.592;2022-08-03T05:18:38;19.90;99.90
2621;DHT22;1320;48.128;11.592;2022-08-03T05:21:04;20.00;99.90
2621;DHT22;1320;48.128;11.592;2022-08-03T05:23:30;20.10;99.90
2621;DHT22;1320;48.128;11.592;2022-08-03T05:25:55;20.10;99.90
2621;DHT22;1320;48.128;11.592;2022-08-03T05:28:21;20.20;99.90
2621;DHT22;1320;48.128;11.592;2022-08-03T05:30:47;20.30;99.90
2621;DHT22;1320;48.128;11.592;2022-08-03T05:33:13;20.40;99.90
2621;DHT22;1320;48.128;11.592;2022-08-03T05:35:39;20.40;99.90
2621;DHT22;1320;48.128;11.592;2022-08-03T05:38:05;20.50;99.90
2621;DHT22;1320;48.128;11.592;2022-08-03T05:40:31;20.60;99.90
2621;DHT22;1320;48.128;11.592;2022-08-03T05:42:57;20.60;99.90
2621;DHT22;1320;48.128;11.592;2022-08-03T05:45:24;20.70;99.90
2621;DHT22;1320;48.128;11.592;2022-08-03T05:47:50;20.80;99.90
2621;DHT22;1320;48.128;11.592;2022-08-03T05:50:17;20.90;99.90
2621;DHT22;1320;48.128;11.592;2022-08-03T05:52:43;21.00;99.90
2621;DHT22;1320;48.128;11.592;2022-08-03T05:55:10;21.10;99.90
2621;DHT22;1320;48.128;11.592;2022-08-03T05:57:36;21.20;99.90
2621;DHT22;1320;48.128;11.592;2022-08-03T06:00:05;21.30;99.90
2621;DHT22;1320;48.128;11.592;2022-08-03T06:02:31;21.40;99.90
2621;DHT22;1320;48.128;11.592;2022-08-03T06:04:57;21.50;99.90
2621;DHT22;1320;48.128;11.592;2022-08-03T06:07:22;21.70;99.90
2621;DHT22;1320;48.128;11.592;2022-08-03T06:09:48;21.80;99.90
2621;DHT22;1320;48.128;11.592;2022-08-03T06:12:14;21.90;99.90
2621;DHT22;1320;48.128;11.592;2022-08-03T06:14:39;22.00;99.90
2621;DHT22;1320;48.128;11.592;2022-08-03T06:17:05;22.10;99.90
2621;DHT22;1320;48.128;11.592;2022-08-03T06:19:31;22.20;99.90
2621;DHT22;1320;48.128;11.592;2022-08-03T06:21:56;22.40;99.90
2621;DHT22;1320;48.128;11.592;2022-08-03T06:24:22;22.50;99.90
2621;DHT22;1320;48.128;11.592;2022-08-03T06:26:48;22.70;99.90
2621;DHT22;1320;48.128;11.592;2022-08-03T06:29:14;22.80;99.90
2621;DHT22;1320;48.128;11.592;2022-08-03T06:31:40;22.90;99.90
2621;DHT22;1320;48.128;11.592;2022-08-03T06:34:05;23.10;99.90
2621;DHT22;1320;48.128;11.592;2022-08-03T06:36:31;23.30;99.90
2621;DHT22;1320;48.128;11.592;2022-08-03T06:38:58;23.40;99.70
2621;DHT22;1320;48.128;11.592;2022-08-03T06:41:24;23.50;99.30
2621;DHT22;1320;48.128;11.592;2022-08-03T06:43:50;23.60;99.30
2621;DHT22;1320;48.128;11.592;2022-08-03T06:46:16;23.80;98.90
2621;DHT22;1320;48.128;11.592;2022-08-03T06:48:42;23.90;98.40
2621;DHT22;1320;48.128;11.592;2022-08-03T06:51:07;24.10;98.20
2621;DHT22;1320;48.128;11.592;2022-08-03T06:53:33;24.20;98.20
2621;DHT22;1320;48.128;11.592;2022-08-03T06:55:59;24.30;97.70
2621;DHT22;1320;48.128;11.592;2022-08-03T06:58:25;24.40;97.50
2621;DHT22;1320;48.128;11.592;2022-08-03T07:00:51;24.60;97.10
2621;DHT22;1320;48.128;11.592;2022-08-03T07:03:17;24.70;97.10
2621;DHT22;1320;48.128;11.592;2022-08-03T07:05:43;24.80;96.70
2621;DHT22;1320;48.128;11.592;2022-08-03T07:08:11;25.00;96.40
2621;DHT22;1320;48.128;11.592;2022-08-03T07:10:36;25.10;96.00
2621;DHT22;1320;48.128;11.592;2022-08-03T07:13:03;25.20;95.70
2621;DHT22;1320;48.128;11.592;2022-08-03T07:15:28;25.30;95.50
2621;DHT22;1320;48.128;11.592;2022-08-03T07:17:55;25.30;95.20
2621;DHT22;1320;48.128;11.592;2022-08-03T07:20:21;25.40;95.40
2621;DHT22;1320;48.128;11.592;2022-08-03T07:22:47;25.50;95.00
2621;DHT22;1320;48.128;11.592;2022-08-03T07:25:13;25.60;94.70
2621;DHT22;1320;48.128;11.592;2022-08-03T07:27:46;25.70;94.40
2621;DHT22;1320;48.128;11.592;2022-08-03T07:30:14;25.80;93.90
2621;DHT22;1320;48.128;11.592;2022-08-03T07:32:40;25.90;94.10
2621;DHT22;1320;48.128;11.592;2022-08-03T07:35:07;26.00;93.90
2621;DHT22;1320;48.128;11.592;2022-08-03T07:37:33;26.20;93.60
2621;DHT22;1320;48.128;11.592;2022-08-03T07:40:00;26.30;93.80
2621;DHT22;1320;48.128;11.592;2022-08-03T07:42:28;26.40;93.60
2621;DHT22;1320;48.128;11.592;2022-08-03T07:44:54;26.50;93.00
2621;DHT22;1320;48.128;11.592;2022-08-03T07:47:26;26.60;92.80
2621;DHT22;1320;48.128;11.592;2022-08-03T07:49:53;26.70;92.60
2621;DHT22;1320;48.128;11.592;2022-08-03T07:52:18;26.80;92.60
2621;DHT22;1320;48.128;11.592;2022-08-03T07:55:04;26.80;92.30
2621;DHT22;1320;48.128;11.592;2022-08-03T07:57:31;26.90;91.60
2621;DHT22;1320;48.128;11.592;2022-08-03T07:59:56;27.00;91.60
2621;DHT22;1320;48.128;11.592;2022-08-03T08:02:23;27.20;91.70
2621;DHT22;1320;48.128;11.592;2022-08-03T08:04:48;27.30;91.60
2621;DHT22;1320;48.128;11.592;2022-08-03T08:07:14;27.40;91.30
2621;DHT22;1320;48.128;11.592;2022-08-03T08:09:40;27.60;91.10
2621;DHT22;1320;48.128;11.592;2022-08-03T08:12:06;27.60;90.90
2621;DHT22;1320;48.128;11.592;2022-08-03T08:14:33;27.70;91.00
2621;DHT22;1320;48.128;11.592;2022-08-03T08:16:58;27.80;91.30
2621;DHT22;1320;48.128;11.592;2022-08-03T08:19:24;27.90;90.80
2621;DHT22;1320;48.128;11.592;2022-08-03T08:21:50;28.00;90.50
2621;DHT22;1320;48.128;11.592;2022-08-03T08:24:15;28.20;90.80
2621;DHT22;1320;48.128;11.592;2022-08-03T08:26:41;28.30;90.40
2621;DHT22;1320;48.128;11.592;2022-08-03T08:29:07;28.40;90.00
2621;DHT22;1320;48.128;11.592;2022-08-03T08:31:32;28.50;90.10
2621;DHT22;1320;48.128;11.592;2022-08-03T08:33:58;28.60;89.80
2621;DHT22;1320;48.128;11.592;2022-08-03T08:36:24;28.70;89.30
2621;DHT22;1320;48.128;11.592;2022-08-03T08:38:50;28.70;88.80
2621;DHT22;1320;48.128;11.592;2022-08-03T08:41:16;28.80;88.40
2621;DHT22;1320;48.128;11.592;2022-08-03T08:43:42;29.00;86.00
2621;DHT22;1320;48.128;11.592;2022-08-03T08:46:11;29.10;87.00
2621;DHT22;1320;48.128;11.592;2022-08-03T08:48:40;29.10;85.90
2621;DHT22;1320;48.128;11.592;2022-08-03T08:51:08;29.30;83.60
2621;DHT22;1320;48.128;11.592;2022-08-03T08:53:36;29.30;83.00
2621;DHT22;1320;48.128;11.592;2022-08-03T08:56:06;29.40;82.20
2621;DHT22;1320;48.128;11.592;2022-08-03T08:58:37;29.50;82.30
2621;DHT22;1320;48.128;11.592;2022-08-03T09:01:06;29.60;81.70
2621;DHT22;1320;48.128;11.592;2022-08-03T09:03:34;29.90;81.20
2621;DHT22;1320;48.128;11.592;2022-08-03T09:06:01;30.30;80.00
2621;DHT22;1320;48.128;11.592;2022-08-03T09:08:28;30.80;76.50
2621;DHT22;1320;48.128;11.592;2022-08-03T09:10:54;31.50;75.60
2621;DHT22;1320;48.128;11.592;2022-08-03T09:13:20;32.20;74.30
2621;DHT22;1320;48.128;11.592;2022-08-03T09:15:45;32.70;71.80
2621;DHT22;1320;48.128;11.592;2022-08-03T09:18:11;33.30;72.30
2621;DHT22;1320;48.128;11.592;2022-08-03T09:20:40;33.70;67.60
2621;DHT22;1320;48.128;11.592;2022-08-03T09:23:07;34.10;69.20
2621;DHT22;1320;48.128;11.592;2022-08-03T09:25:36;34.40;68.20
2621;DHT22;1320;48.128;11.592;2022-08-03T09:28:14;34.60;66.10
2621;DHT22;1320;48.128;11.592;2022-08-03T09:30:42;34.90;65.20
2621;DHT22;1320;48.128;11.592;2022-08-03T09:33:10;35.10;62.20
2621;DHT22;1320;48.128;11.592;2022-08-03T09:35:43;35.20;62.40
2621;DHT22;1320;48.128;11.592;2022-08-03T09:40:40;35.60;59.90
2621;DHT22;1320;48.128;11.592;2022-08-03T09:43:07;35.80;58.90
2621;DHT22;1320;48.128;11.592;2022-08-03T09:45:37;36.20;58.50
2621;DHT22;1320;48.128;11.592;2022-08-03T09:48:25;36.30;58.60
2621;DHT22;1320;48.128;11.592;2022-08-03T09:50:52;36.50;58.60
2621;DHT22;1320;48.128;11.592;2022-08-03T09:53:22;36.70;58.00
2621;DHT22;1320;48.128;11.592;2022-08-03T09:56:01;36.90;56.60
2621;DHT22;1320;48.128;11.592;2022-08-03T09:58:29;36.90;55.90
2621;DHT22;1320;48.128;11.592;2022-08-03T10:01:01;36.80;55.90
2621;DHT22;1320;48.128;11.592;2022-08-03T10:03:32;36.80;55.90
2621;DHT22;1320;48.128;11.592;2022-08-03T10:06:17;36.80;55.60
2621;DHT22;1320;48.128;11.592;2022-08-03T10:09:03;36.90;56.10
2621;DHT22;1320;48.128;11.592;2022-08-03T10:11:30;37.00;56.40
2621;DHT22;1320;48.128;11.592;2022-08-03T10:13:57;36.80;56.30
2621;DHT22;1320;48.128;11.592;2022-08-03T10:16:22;36.70;56.00
2621;DHT22;1320;48.128;11.592;2022-08-03T10:18:48;36.70;55.20
2621;DHT22;1320;48.128;11.592;2022-08-03T10:21:16;36.80;55.40
2621;DHT22;1320;48.128;11.592;2022-08-03T10:23:45;36.80;55.50
2621;DHT22;1320;48.128;11.592;2022-08-03T10:26:12;36.90;55.50
2621;DHT22;1320;48.128;11.592;2022-08-03T10:28:48;37.00;55.60
2621;DHT22;1320;48.128;11.592;2022-08-03T10:31:15;36.90;55.40
2621;DHT22;1320;48.128;11.592;2022-08-03T10:33:45;36.90;55.40
2621;DHT22;1320;48.128;11.592;2022-08-03T10:36:12;36.90;54.70
2621;DHT22;1320;48.128;11.592;2022-08-03T10:38:50;36.90;54.80
2621;DHT22;1320;48.128;11.592;2022-08-03T10:41:25;37.00;53.60
2621;DHT22;1320;48.128;11.592;2022-08-03T10:44:04;36.90;54.70
2621;DHT22;1320;48.128;11.592;2022-08-03T10:46:32;37.00;54.70
2621;DHT22;1320;48.128;11.592;2022-08-03T10:48:59;37.10;55.50
2621;DHT22;1320;48.128;11.592;2022-08-03T10:51:25;37.10;54.10
2621;DHT22;1320;48.128;11.592;2022-08-03T10:53:57;37.20;54.00
2621;DHT22;1320;48.128;11.592;2022-08-03T11:02:10;37.10;54.40
2621;DHT22;1320;48.128;11.592;2022-08-03T11:04:39;37.00;55.20
2621;DHT22;1320;48.128;11.592;2022-08-03T11:07:22;36.90;55.30
2621;DHT22;1320;48.128;11.592;2022-08-03T11:09:53;36.80;53.90
2621;DHT22;1320;48.128;11.592;2022-08-03T11:12:31;36.60;54.70
2621;DHT22;1320;48.128;11.592;2022-08-03T11:15:05;36.50;55.10
2621;DHT22;1320;48.128;11.592;2022-08-03T11:17:32;36.40;54.60
2621;DHT22;1320;48.128;11.592;2022-08-03T11:19:58;36.40;53.70
2621;DHT22;1320;48.128;11.592;2022-08-03T11:22:24;36.40;54.00
2621;DHT22;1320;48.128;11.592;2022-08-03T11:24:56;36.40;53.80
2621;DHT22;1320;48.128;11.592;2022-08-03T11:27:34;36.50;52.80
2621;DHT22;1320;48.128;11.592;2022-08-03T11:46:08;36.00;53.00
2621;DHT22;1320;48.128;11.592;2022-08-03T11:48:47;36.00;53.00
2621;DHT22;1320;48.128;11.592;2022-08-03T11:51:27;36.00;52.90
2621;DHT22;1320;48.128;11.592;2022-08-03T11:53:58;36.20;51.70
2621;DHT22;1320;48.128;11.592;2022-08-03T11:56:25;36.10;52.70
2621;DHT22;1320;48.128;11.592;2022-08-03T11:58:53;36.20;51.90
2621;DHT22;1320;48.128;11.592;2022-08-03T12:01:21;36.20;50.90
2621;DHT22;1320;48.128;11.592;2022-08-03T12:03:47;36.30;50.60
2621;DHT22;1320;48.128;11.592;2022-08-03T12:06:15;36.40;51.30
2621;DHT22;1320;48.128;11.592;2022-08-03T12:08:42;36.40;50.20
2621;DHT22;1320;48.128;11.592;2022-08-03T12:11:09;36.40;50.40
2621;DHT22;1320;48.128;11.592;2022-08-03T12:13:40;36.50;49.90
2621;DHT22;1320;48.128;11.592;2022-08-03T12:16:06;36.60;50.00
2621;DHT22;1320;48.128;11.592;2022-08-03T12:18:32;36.60;49.30
2621;DHT22;1320;48.128;11.592;2022-08-03T12:21:09;36.50;49.10
2621;DHT22;1320;48.128;11.592;2022-08-03T12:23:35;36.40;49.70
2621;DHT22;1320;48.128;11.592;2022-08-03T12:26:06;36.50;49.70
2621;DHT22;1320;48.128;11.592;2022-08-03T12:28:33;36.60;50.40
2621;DHT22;1320;48.128;11.592;2022-08-03T12:31:06;36.70;50.40
2621;DHT22;1320;48.128;11.592;2022-08-03T12:33:59;36.80;49.90
2621;DHT22;1320;48.128;11.592;2022-08-03T12:36:28;36.90;48.60
2621;DHT22;1320;48.128;11.592;2022-08-03T12:38:57;36.90;48.70
2621;DHT22;1320;48.128;11.592;2022-08-03T12:43:56;36.80;48.60
2621;DHT22;1320;48.128;11.592;2022-08-03T12:46:22;36.90;49.10
2621;DHT22;1320;48.128;11.592;2022-08-03T12:51:27;37.00;48.00
2621;DHT22;1320;48.128;11.592;2022-08-03T12:53:54;37.00;48.60
2621;DHT22;1320;48.128;11.592;2022-08-03T12:56:21;37.00;48.90
2621;DHT22;1320;48.128;11.592;2022-08-03T12:58:47;37.10;48.70
2621;DHT22;1320;48.128;11.592;2022-08-03T13:01:16;37.20;47.90
2621;DHT22;1320;48.128;11.592;2022-08-03T13:03:46;37.30;47.60
2621;DHT22;1320;48.128;11.592;2022-08-03T13:06:23;37.40;47.90
2621;DHT22;1320;48.128;11.592;2022-08-03T13:09:00;37.50;48.10
2621;DHT22;1320;48.128;11.592;2022-08-03T13:11:27;37.50;47.80
2621;DHT22;1320;48.128;11.592;2022-08-03T13:13:53;37.60;47.90
2621;DHT22;1320;48.128;11.592;2022-08-03T13:16:20;37.60;48.10
2621;DHT22;1320;48.128;11.592;2022-08-03T13:18:47;37.80;46.80
2621;DHT22;1320;48.128;11.592;2022-08-03T13:21:17;38.00;47.30
2621;DHT22;1320;48.128;11.592;2022-08-03T13:23:44;38.20;47.30
2621;DHT22;1320;48.128;11.592;2022-08-03T13:26:11;38.20;46.40
2621;DHT22;1320;48.128;11.592;2022-08-03T13:28:39;38.20;46.30
2621;DHT22;1320;48.128;11.592;2022-08-03T13:31:05;38.30;46.00
2621;DHT22;1320;48.128;11.592;2022-08-03T13:33:31;38.10;46.00
2621;DHT22;1320;48.128;11.592;2022-08-03T13:35:57;38.10;46.30
2621;DHT22;1320;48.128;11.592;2022-08-03T13:38:23;38.40;47.30
2621;DHT22;1320;48.128;11.592;2022-08-03T13:40:51;38.50;48.00
2621;DHT22;1320;48.128;11.592;2022-08-03T13:43:17;38.50;47.70
2621;DHT22;1320;48.128;11.592;2022-08-03T13:45:42;38.60;47.00
2621;DHT22;1320;48.128;11.592;2022-08-03T13:48:08;38.60;47.80
2621;DHT22;1320;48.128;11.592;2022-08-03T13:50:34;38.60;47.80
2621;DHT22;1320;48.128;11.592;2022-08-03T13:52:59;38.50;46.90
2621;DHT22;1320;48.128;11.592;2022-08-03T13:55:25;38.60;48.20
2621;DHT22;1320;48.128;11.592;2022-08-03T13:57:51;38.60;48.20
2621;DHT22;1320;48.128;11.592;2022-08-03T14:00:17;38.70;48.50
2621;DHT22;1320;48.128;11.592;2022-08-03T14:02:43;38.80;48.30
2621;DHT22;1320;48.128;11.592;2022-08-03T14:05:09;38.80;48.10
2621;DHT22;1320;48.128;11.592;2022-08-03T14:07:35;38.80;48.40
2621;DHT22;1320;48.128;11.592;2022-08-03T14:10:01;38.90;48.00
2621;DHT22;1320;48.128;11.592;2022-08-03T14:12:27;38.90;48.20
2621;DHT22;1320;48.128;11.592;2022-08-03T14:14:52;38.90;48.10
2621;DHT22;1320;48.128;11.592;2022-08-03T14:17:18;39.00;48.30
2621;DHT22;1320;48.128;11.592;2022-08-03T14:19:44;39.00;48.20
2621;DHT22;1320;48.128;11.592;2022-08-03T14:22:10;38.90;48.60
2621;DHT22;1320;48.128;11.592;2022-08-03T14:24:35;38.90;48.50
2621;DHT22;1320;48.128;11.592;2022-08-03T14:27:01;38.90;48.20
2621;DHT22;1320;48.128;11.592;2022-08-03T14:29:27;38.80;48.30
2621;DHT22;1320;48.128;11.592;2022-08-03T14:31:52;38.80;48.10
2621;DHT22;1320;48.128;11.592;2022-08-03T14:34:18;38.80;47.60
2621;DHT22;1320;48.128;11.592;2022-08-03T14:36:43;38.80;47.00
2621;DHT22;1320;48.128;11.592;2022-08-03T14:39:12;38.60;47.00
2621;DHT22;1320;48.128;11.592;2022-08-03T14:41:37;38.50;46.70
2621;DHT22;1320;48.128;11.592;2022-08-03T14:44:03;38.50;48.20
2621;DHT22;1320;48.128;11.592;2022-08-03T14:46:29;38.60;48.10
2621;DHT22;1320;48.128;11.592;2022-08-03T14:48:55;38.60;47.60
2621;DHT22;1320;48.128;11.592;2022-08-03T14:51:21;38.70;47.40
2621;DHT22;1320;48.128;11.592;2022-08-03T14:53:46;38.90;47.30
2621;DHT22;1320;48.128;11.592;2022-08-03T14:56:12;39.00;47.90
2621;DHT22;1320;48.128;11.592;2022-08-03T14:58:38;39.10;47.20
2621;DHT22;1320;48.128;11.592;2022-08-03T15:01:04;39.30;46.20
2621;DHT22;1320;48.128;11.592;2022-08-03T15:03:29;39.30;47.50
2621;DHT22;1320;48.128;11.592;2022-08-03T15:05:55;39.40;47.00
2621;DHT22;1320;48.128;11.592;2022-08-03T15:08:22;39.60;46.30
2621;DHT22;1320;48.128;11.592;2022-08-03T15:10:49;39.80;46.20
2621;DHT22;1320;48.128;11.592;2022-08-03T15:13:15;40.10;46.20
2621;DHT22;1320;48.128;11.592;2022-08-03T15:15:41;40.20;45.70
2621;DHT22;1320;48.128;11.592;2022-08-03T15:18:07;40.20;45.50
2621;DHT22;1320;48.128;11.592;2022-08-03T15:20:32;40.20;45.70
2621;DHT22;1320;48.128;11.592;2022-08-03T15:22:58;40.20;45.50
2621;DHT22;1320;48.128;11.592;2022-08-03T15:25:24;40.20;45.50
2621;DHT22;1320;48.128;11.592;2022-08-03T15:27:51;40.20;45.70
2621;DHT22;1320;48.128;11.592;2022-08-03T15:30:17;40.30;45.20
2621;DHT22;1320;48.128;11.592;2022-08-03T15:32:42;40.30;45.30
2621;DHT22;1320;48.128;11.592;2022-08-03T15:35:08;40.30;45.50
2621;DHT22;1320;48.128;11.592;2022-08-03T15:37:34;40.20;45.00
2621;DHT22;1320;48.128;11.592;2022-08-03T15:39:59;40.20;45.10
2621;DHT22;1320;48.128;11.592;2022-08-03T15:42:25;40.30;45.60
2621;DHT22;1320;48.128;11.592;2022-08-03T15:44:51;40.30;44.80
2621;DHT22;1320;48.128;11.592;2022-08-03T15:47:16;40.30;45.00
2621;DHT22;1320;48.128;11.592;2022-08-03T15:49:42;40.30;44.40
2621;DHT22;1320;48.128;11.592;2022-08-03T15:52:07;40.40;44.60
2621;DHT22;1320;48.128;11.592;2022-08-03T15:54:33;40.70;44.50
2621;DHT22;1320;48.128;11.592;2022-08-03T15:56:59;40.90;44.20
2621;DHT22;1320;48.128;11.592;2022-08-03T15:59:24;41.00;44.60
2621;DHT22;1320;48.128;11.592;2022-08-03T16:01:50;41.00;44.00
2621;DHT22;1320;48.128;11.592;2022-08-03T16:04:16;40.90;44.30
2621;DHT22;1320;48.128;11.592;2022-08-03T16:06:41;41.00;44.00
2621;DHT22;1320;48.128;11.592;2022-08-03T16:09:07;41.00;43.80
2621;DHT22;1320;48.128;11.592;2022-08-03T16:11:34;41.20;43.60
2621;DHT22;1320;48.128;11.592;2022-08-03T16:14:00;41.40;43.20
2621;DHT22;1320;48.128;11.592;2022-08-03T16:16:26;41.60;43.30
2621;DHT22;1320;48.128;11.592;2022-08-03T16:18:51;41.70;43.10
2621;DHT22;1320;48.128;11.592;2022-08-03T16:21:17;41.80;42.80
2621;DHT22;1320;48.128;11.592;2022-08-03T16:23:43;41.70;42.80
2621;DHT22;1320;48.128;11.592;2022-08-03T16:26:10;41.70;42.90
2621;DHT22;1320;48.128;11.592;2022-08-03T16:28:36;41.70;43.00
2621;DHT22;1320;48.128;11.592;2022-08-03T16:31:05;41.90;43.00
2621;DHT22;1320;48.128;11.592;2022-08-03T16:33:31;42.00;43.00
2621;DHT22;1320;48.128;11.592;2022-08-03T16:35:57;42.00;43.20
2621;DHT22;1320;48.128;11.592;2022-08-03T16:38:23;42.10;43.00